Time;durP1;ratioP1;P1;durP2;ratioP2;P2;SDS_P1;SDS_P2;PMS_P1;PMS_P2;Temp;Humidity;BMP_temperature;BMP_pressure;BME280_temperature;BME280_humidity;BME280_pressure;Samples;Min_cycle;Max_cycle;Signal;HPM_P1;HPM_P2
2023/04/30 00:01:44;;;;;;;;;;;;;;;17.10;68.15;100694.97;4935028;29;19915;-76
2023/04/30 00:04:36;;;;;;;;;;;;;;;17.17;67.74;100699.03;4929559;29;20307;-78
2023/04/30 00:07:28;;;;;;;;;;;;;;;16.71;69.59;100696.03;4933891;29;19919;-78
2023/04/30 00:10:20;;;;;;;;;;;;;;;16.87;68.55;100694.06;4939541;29;19914;-77
2023/04/30 00:13:12;;;;;;;;;;;;;;;16.84;68.60;100696.72;4943458;29;19919;-79
2023/04/30 00:16:04;;;;;;;;;;;;;;;16.55;69.12;100698.78;4943213;29;19915;-82
2023/04/30 00:18:56;;;;;;;;;;;;;;;16.40;70.49;100704.28;4939808;29;19915;-77
2023/04/30 00:21:47;;;;;;;;;;;;;;;16.43;69.84;100712.59;4935009;29;19914;-78
2023/04/30 00:24:39;;;;;;;;;;;;;;;16.30;69.83;100704.81;4940855;29;20294;-78
2023/04/30 00:27:31;;;;;;;;;;;;;;;16.39;69.66;100708.19;4937794;29;19918;-77
2023/04/30 00:30:23;;;;;;;;;;;;;;;16.30;69.74;100710.31;4935498;29;19915;-77
2023/04/30 00:33:15;;;;;;;;;;;;;;;16.32;69.52;100707.97;4936782;29;19915;-77
2023/04/30 00:36:07;;;;;;;;;;;;;;;16.43;68.64;100706.31;4924201;29;19915;-80
2023/04/30 00:38:59;;;;;;;;;;;;;;;16.22;69.82;100701.88;4937932;29;19914;-79
2023/04/30 00:41:51;;;;;;;;;;;;;;;15.94;70.53;100698.41;4937192;29;19915;-79
2023/04/30 00:44:43;;;;;;;;;;;;;;;16.03;69.57;100695.50;4934758;29;19918;-77
2023/04/30 00:47:34;;;;;;;;;;;;;;;16.07;69.26;100685.41;4938181;29;19914;-77
2023/04/30 00:50:24;;;;;;;;;;;;;;;16.00;69.24;100677.78;4929319;29;19915;-77
2023/04/30 00:53:16;;;;;;;;;;;;;;;16.07;69.14;100680.72;4938666;29;19915;-78
2023/04/30 00:56:09;;;;;;;;;;;;;;;16.10;68.98;100676.50;4939259;29;19915;-78
2023/04/30 00:59:01;;;;;;;;;;;;;;;16.05;69.16;100674.78;4924002;29;20375;-78
2023/04/30 01:01:53;;;;;;;;;;;;;;;15.86;68.72;100676.63;4926041;29;19915;-79
2023/04/30 01:04:45;;;;;;;;;;;;;;;15.73;70.04;100676.69;4933316;29;19918;-78
2023/04/30 01:07:37;;;;;;;;;;;;;;;15.90;69.00;100670.06;4943391;29;19915;-79
2023/04/30 01:10:31;;;;;;;;;;;;;;;16.03;68.27;100662.56;4923707;29;19915;-77
2023/04/30 01:13:29;;;;;;;;;;;;;;;15.96;68.34;100659.63;4926132;29;19914;-78
2023/04/30 01:16:21;;;;;;;;;;;;;;;16.02;67.61;100667.25;4942639;29;19914;-77
2023/04/30 01:19:21;;;;;;;;;;;;;;;15.99;67.78;100667.97;4941077;29;20298;-79
2023/04/30 01:22:12;;;;;;;;;;;;;;;15.98;67.54;100669.13;4945384;29;19915;-77
2023/04/30 01:25:23;;;;;;;;;;;;;;;15.99;67.63;100675.41;4941269;29;20298;-78
2023/04/30 01:28:18;;;;;;;;;;;;;;;15.96;67.52;100673.34;4940404;29;19915;-78
2023/04/30 01:31:20;;;;;;;;;;;;;;;15.91;67.42;100674.41;4940325;29;19914;-78
2023/04/30 01:34:11;;;;;;;;;;;;;;;15.87;67.88;100676.28;4938255;29;19919;-78
2023/04/30 01:37:20;;;;;;;;;;;;;;;15.90;67.91;100677.53;4942355;29;19914;-78
2023/04/30 01:40:22;;;;;;;;;;;;;;;15.87;67.97;100675.47;4945149;29;19934;-78
2023/04/30 01:43:34;;;;;;;;;;;;;;;15.82;67.88;100684.75;4931493;29;19914;-80
2023/04/30 01:46:30;;;;;;;;;;;;;;;15.87;67.92;100680.97;4939510;29;19914;-78
2023/04/30 01:49:27;;;;;;;;;;;;;;;15.96;67.90;100684.31;4944779;29;20305;-79
2023/04/30 01:52:20;;;;;;;;;;;;;;;16.03;67.24;100677.09;4939173;29;20378;-80
2023/04/30 01:55:14;;;;;;;;;;;;;;;16.02;67.58;100678.22;4939058;29;19948;-78
2023/04/30 01:58:04;;;;;;;;;;;;;;;15.64;68.93;100676.06;4925324;29;19918;-78
2023/04/30 02:00:56;;;;;;;;;;;;;;;15.73;68.33;100671.22;4926178;29;19915;-78
2023/04/30 02:03:48;;;;;;;;;;;;;;;15.81;67.57;100662.00;4918673;29;19919;-80
2023/04/30 02:06:40;;;;;;;;;;;;;;;15.64;68.12;100670.56;4931271;29;19914;-80
2023/04/30 02:09:32;;;;;;;;;;;;;;;15.67;67.87;100675.34;4938523;29;19918;-77
2023/04/30 02:12:23;;;;;;;;;;;;;;;15.73;67.24;100675.91;4942519;29;19914;-79
2023/04/30 02:15:16;;;;;;;;;;;;;;;15.46;68.34;100671.19;4926232;29;19915;-78
2023/04/30 02:18:05;;;;;;;;;;;;;;;15.50;67.80;100672.06;4943557;29;19915;-78
2023/04/30 02:20:57;;;;;;;;;;;;;;;15.52;67.63;100675.31;4944213;29;20467;-78
2023/04/30 02:23:49;;;;;;;;;;;;;;;15.56;67.33;100677.00;4935020;29;19922;-78
2023/04/30 02:26:41;;;;;;;;;;;;;;;15.48;66.99;100674.38;4939263;29;20115;-77
2023/04/30 02:29:33;;;;;;;;;;;;;;;15.35;67.98;100662.66;4927983;29;19915;-78
2023/04/30 02:32:25;;;;;;;;;;;;;;;15.33;67.50;100670.44;4932646;29;20379;-79
2023/04/30 02:35:17;;;;;;;;;;;;;;;15.38;67.29;100665.53;4920938;29;19915;-77
2023/04/30 02:38:09;;;;;;;;;;;;;;;15.38;67.33;100671.00;4935419;29;20290;-79
2023/04/30 02:41:02;;;;;;;;;;;;;;;15.35;67.15;100668.94;4938318;29;20321;-78
2023/04/30 02:43:54;;;;;;;;;;;;;;;15.25;67.26;100663.16;4926103;29;19919;-79
2023/04/30 02:46:46;;;;;;;;;;;;;;;15.02;68.28;100657.41;4921590;29;19915;-77
2023/04/30 02:49:38;;;;;;;;;;;;;;;15.02;69.17;100662.88;4924593;29;19915;-79
2023/04/30 02:52:30;;;;;;;;;;;;;;;15.18;68.01;100657.47;4936115;29;19915;-78
2023/04/30 02:55:22;;;;;;;;;;;;;;;15.14;67.97;100659.28;4920866;29;20314;-77
2023/04/30 02:58:15;;;;;;;;;;;;;;;14.78;69.77;100658.25;4938367;29;20345;-79
2023/04/30 03:01:07;;;;;;;;;;;;;;;14.96;68.38;100653.31;4934547;29;19915;-78
2023/04/30 03:04:02;;;;;;;;;;;;;;;15.13;67.44;100653.06;4922770;29;19919;-78
2023/04/30 03:06:54;;;;;;;;;;;;;;;14.74;69.14;100651.88;4918094;29;20370;-78
2023/04/30 03:09:46;;;;;;;;;;;;;;;14.80;68.51;100646.94;4935976;29;19914;-79
2023/04/30 03:12:33;;;;;;;;;;;;;;;14.83;68.29;100643.53;4928134;29;19915;-78
2023/04/30 03:15:25;;;;;;;;;;;;;;;14.99;67.77;100647.94;4937667;29;19914;-77
2023/04/30 03:18:17;;;;;;;;;;;;;;;15.08;67.27;100653.28;4938415;29;19915;-76
2023/04/30 03:21:09;;;;;;;;;;;;;;;15.04;67.37;100649.63;4944768;29;19915;-79
2023/04/30 03:24:01;;;;;;;;;;;;;;;14.98;67.31;100651.03;4944602;29;19918;-78
2023/04/30 03:26:53;;;;;;;;;;;;;;;14.93;67.50;100649.31;4945465;29;19915;-78
2023/04/30 03:29:45;;;;;;;;;;;;;;;14.91;67.87;100650.81;4943749;29;19915;-79
2023/04/30 03:32:37;;;;;;;;;;;;;;;14.92;67.84;100646.94;4935401;29;20411;-78
2023/04/30 03:35:29;;;;;;;;;;;;;;;14.87;67.96;100647.97;4928342;29;19914;-78
2023/04/30 03:38:21;;;;;;;;;;;;;;;14.79;68.04;100650.81;4928951;29;19919;-79
2023/04/30 03:41:13;;;;;;;;;;;;;;;14.82;68.11;100650.97;4942028;29;19915;-78
2023/04/30 03:44:03;;;;;;;;;;;;;;;14.84;67.76;100656.06;4946130;28;19923;-78
2023/04/30 03:46:55;;;;;;;;;;;;;;;14.61;69.30;100650.28;4950600;29;20323;-79
2023/04/30 03:49:47;;;;;;;;;;;;;;;14.41;69.29;100649.28;4935902;29;19915;-77
2023/04/30 03:52:39;;;;;;;;;;;;;;;14.57;69.11;100651.31;4933013;29;19915;-78
2023/04/30 03:55:32;;;;;;;;;;;;;;;14.77;68.00;100644.91;4931850;29;19923;-78
2023/04/30 03:58:24;;;;;;;;;;;;;;;14.85;67.75;100650.25;4923804;29;19915;-77
2023/04/30 04:01:16;;;;;;;;;;;;;;;14.73;68.04;100652.22;4925335;29;19915;-78
2023/04/30 04:04:08;;;;;;;;;;;;;;;14.78;67.84;100658.25;4917307;29;20344;-77
2023/04/30 04:07:00;;;;;;;;;;;;;;;14.53;69.10;100660.19;4926348;29;19914;-78
2023/04/30 04:09:52;;;;;;;;;;;;;;;14.43;68.34;100657.94;4937851;29;19927;-77
2023/04/30 04:12:44;;;;;;;;;;;;;;;14.41;69.36;100653.94;4940914;29;19915;-77
2023/04/30 04:15:36;;;;;;;;;;;;;;;14.12;70.18;100652.97;4926062;29;19914;-77
2023/04/30 04:18:28;;;;;;;;;;;;;;;13.87;71.59;100656.81;4933050;29;19914;-77
2023/04/30 04:21:20;;;;;;;;;;;;;;;13.80;72.78;100659.31;4920127;29;19914;-77
2023/04/30 04:24:07;;;;;;;;;;;;;;;14.03;71.49;100654.22;4915524;29;19919;-78
2023/04/30 04:26:59;;;;;;;;;;;;;;;13.96;72.00;100667.66;4923758;29;19915;-82
2023/04/30 04:29:51;;;;;;;;;;;;;;;14.23;71.05;100668.94;4906754;29;19918;-78
2023/04/30 04:32:45;;;;;;;;;;;;;;;14.28;69.33;100674.19;4934909;29;20393;-80
2023/04/30 04:35:37;;;;;;;;;;;;;;;14.05;70.51;100677.38;4951674;29;19914;-81
2023/04/30 04:38:29;;;;;;;;;;;;;;;14.47;69.39;100688.97;4943614;28;19914;-79
2023/04/30 04:41:25;;;;;;;;;;;;;;;14.54;68.83;100689.16;4931748;28;20385;-81
2023/04/30 04:44:17;;;;;;;;;;;;;;;14.61;68.42;100688.59;4934863;28;20302;-78
2023/04/30 04:47:09;;;;;;;;;;;;;;;14.73;67.61;100690.56;4938067;28;19915;-80
2023/04/30 04:50:01;;;;;;;;;;;;;;;14.80;67.62;100688.00;4945418;28;19922;-77
2023/04/30 04:52:53;;;;;;;;;;;;;;;14.84;67.33;100695.19;4945090;28;19918;-78
2023/04/30 04:55:44;;;;;;;;;;;;;;;14.87;67.58;100696.47;4939695;29;19915;-79
2023/04/30 04:58:36;;;;;;;;;;;;;;;14.56;69.09;100699.78;4930875;29;19915;-79
2023/04/30 05:01:28;;;;;;;;;;;;;;;14.44;70.43;100697.84;4939406;29;19918;-79
2023/04/30 05:04:20;;;;;;;;;;;;;;;14.05;72.06;100701.19;4938777;29;19918;-80
2023/04/30 05:07:12;;;;;;;;;;;;;;;13.94;73.22;100700.81;4931258;29;19915;-78
2023/04/30 05:10:04;;;;;;;;;;;;;;;14.20;72.56;100705.19;4932978;29;19915;-78
2023/04/30 05:12:56;;;;;;;;;;;;;;;14.37;71.69;100705.81;4929350;29;19914;-78
2023/04/30 05:15:48;;;;;;;;;;;;;;;14.53;71.53;100711.41;4944550;29;20318;-80
2023/04/30 05:18:40;;;;;;;;;;;;;;;14.66;71.33;100714.94;4937400;29;19922;-79
2023/04/30 05:21:32;;;;;;;;;;;;;;;14.73;71.66;100720.66;4933508;29;19915;-77
2023/04/30 05:24:24;;;;;;;;;;;;;;;14.81;71.64;100714.25;4937539;29;19919;-79
2023/04/30 05:27:15;;;;;;;;;;;;;;;14.84;72.11;100711.63;4940787;29;19914;-79
2023/04/30 05:30:07;;;;;;;;;;;;;;;14.98;71.61;100714.03;4934014;29;19915;-79
2023/04/30 05:32:59;;;;;;;;;;;;;;;14.99;71.65;100719.13;4935245;29;19918;-78
2023/04/30 05:35:51;;;;;;;;;;;;;;;15.13;70.94;100718.00;4932283;29;19918;-80
2023/04/30 05:38:43;;;;;;;;;;;;;;;15.26;70.52;100723.09;4928978;29;19918;-78
2023/04/30 05:41:33;;;;;;;;;;;;;;;15.36;70.16;100727.28;4930999;29;20402;-79
2023/04/30 05:44:24;;;;;;;;;;;;;;;15.35;70.77;100723.75;4934425;29;19919;-78
2023/04/30 05:47:16;;;;;;;;;;;;;;;15.32;71.82;100723.66;4938401;29;19918;-78
2023/04/30 05:50:08;;;;;;;;;;;;;;;15.44;70.90;100722.81;4939834;29;20366;-80
2023/04/30 05:53:00;;;;;;;;;;;;;;;15.48;70.70;100726.44;4931921;29;19915;-78
2023/04/30 05:55:52;;;;;;;;;;;;;;;15.46;71.22;100726.00;4929702;29;19915;-78
2023/04/30 05:58:44;;;;;;;;;;;;;;;15.55;71.08;100734.91;4924153;29;19915;-79
2023/04/30 06:01:36;;;;;;;;;;;;;;;15.47;71.78;100728.41;4935502;29;19914;-80
2023/04/30 06:04:28;;;;;;;;;;;;;;;15.40;72.35;100736.41;4939974;29;19919;-79
2023/04/30 06:07:19;;;;;;;;;;;;;;;15.61;71.07;100739.00;4940666;29;19918;-79
2023/04/30 06:10:11;;;;;;;;;;;;;;;15.59;71.12;100742.09;4940915;29;19914;-78
2023/04/30 06:13:03;;;;;;;;;;;;;;;15.53;71.29;100740.75;4929192;29;19919;-80
2023/04/30 06:15:55;;;;;;;;;;;;;;;15.62;70.91;100740.59;4929390;29;19915;-78
2023/04/30 06:18:47;;;;;;;;;;;;;;;15.69;70.68;100747.09;4939844;29;19915;-78
2023/04/30 06:21:39;;;;;;;;;;;;;;;15.58;71.13;100748.72;4934871;29;19915;-80
2023/04/30 06:24:31;;;;;;;;;;;;;;;15.66;70.54;100746.97;4938477;29;19919;-79
2023/04/30 06:27:21;;;;;;;;;;;;;;;15.66;70.55;100752.44;4938494;28;19919;-78
2023/04/30 06:30:12;;;;;;;;;;;;;;;15.71;70.34;100754.94;4957743;28;19941;-78
2023/04/30 06:33:02;;;;;;;;;;;;;;;15.62;70.61;100749.63;4934075;29;20398;-78
2023/04/30 06:35:54;;;;;;;;;;;;;;;15.66;70.30;100750.50;4935805;29;19914;-78
2023/04/30 06:38:46;;;;;;;;;;;;;;;15.86;70.00;100759.69;4924784;29;19914;-78
2023/04/30 06:41:38;;;;;;;;;;;;;;;15.89;70.32;100756.25;4931655;29;19922;-79
2023/04/30 06:44:32;;;;;;;;;;;;;;;15.90;71.28;100752.34;4940685;29;19919;-78
2023/04/30 06:47:24;;;;;;;;;;;;;;;15.90;72.01;100749.59;4941380;29;19918;-78
2023/04/30 06:50:16;;;;;;;;;;;;;;;15.98;71.56;100761.56;4935430;29;20296;-79
2023/04/30 06:53:08;;;;;;;;;;;;;;;16.05;70.81;100757.06;4942409;29;19914;-79
2023/04/30 06:56:00;;;;;;;;;;;;;;;16.44;70.10;100751.81;4934906;29;19915;-78
2023/04/30 06:58:49;;;;;;;;;;;;;;;16.46;68.39;100760.47;4937105;29;20398;-79
2023/04/30 07:01:41;;;;;;;;;;;;;;;16.50;68.42;100756.72;4923572;29;19915;-77
2023/04/30 07:04:33;;;;;;;;;;;;;;;16.83;66.20;100761.06;4938658;29;19922;-80
2023/04/30 07:07:23;;;;;;;;;;;;;;;16.95;65.96;100759.00;4938405;29;19915;-78
2023/04/30 07:10:15;;;;;;;;;;;;;;;16.94;66.04;100762.91;4941225;29;19914;-79
2023/04/30 07:13:07;;;;;;;;;;;;;;;17.21;65.17;100765.88;4939392;29;19915;-82
2023/04/30 07:15:59;;;;;;;;;;;;;;;17.27;64.31;100767.97;4935943;29;19915;-81
2023/04/30 07:18:51;;;;;;;;;;;;;;;17.41;63.93;100764.75;4950272;28;19914;-79
2023/04/30 07:21:43;;;;;;;;;;;;;;;17.40;63.65;100757.66;4924199;29;19948;-79
2023/04/30 07:24:35;;;;;;;;;;;;;;;17.34;63.76;100765.38;4943263;29;20290;-79
2023/04/30 07:27:34;;;;;;;;;;;;;;;17.45;63.54;100762.88;4922325;29;19914;-80
2023/04/30 07:30:26;;;;;;;;;;;;;;;17.49;63.32;100767.28;4930848;29;20294;-81
2023/04/30 07:33:18;;;;;;;;;;;;;;;17.47;63.60;100763.31;4942678;28;19919;-79
2023/04/30 07:36:09;;;;;;;;;;;;;;;17.50;63.70;100762.59;4941661;28;20854;-76
2023/04/30 07:39:01;;;;;;;;;;;;;;;17.52;63.89;100763.03;4932984;29;19914;-78
2023/04/30 07:41:53;;;;;;;;;;;;;;;17.57;63.37;100768.25;4929414;29;20298;-79
2023/04/30 07:44:43;;;;;;;;;;;;;;;17.46;63.46;100768.00;4928894;29;19918;-77
2023/04/30 07:47:34;;;;;;;;;;;;;;;17.77;62.29;100764.38;4937052;29;19914;-78
2023/04/30 07:50:26;;;;;;;;;;;;;;;17.66;62.07;100763.34;4934307;29;19915;-79
2023/04/30 07:53:18;;;;;;;;;;;;;;;17.75;62.22;100763.13;4934285;29;20389;-78
2023/04/30 07:56:10;;;;;;;;;;;;;;;17.81;61.73;100761.69;4924341;29;19915;-77
2023/04/30 07:59:02;;;;;;;;;;;;;;;17.86;61.86;100755.88;4932774;29;19915;-78
2023/04/30 08:01:54;;;;;;;;;;;;;;;17.98;61.48;100760.44;4962699;23;19926;-83
2023/04/30 08:04:46;;;;;;;;;;;;;;;18.13;60.91;100762.31;4939039;28;19927;-82
2023/04/30 08:07:38;;;;;;;;;;;;;;;18.28;60.28;100756.69;4946743;28;19915;-83
2023/04/30 08:10:30;;;;;;;;;;;;;;;18.53;59.51;100753.56;4942255;29;19915;-83
2023/04/30 08:13:19;;;;;;;;;;;;;;;18.67;59.25;100759.34;4920648;29;19915;-83
2023/04/30 08:16:11;;;;;;;;;;;;;;;18.69;58.79;100763.31;4930999;29;19914;-81
2023/04/30 08:19:03;;;;;;;;;;;;;;;18.73;58.09;100766.94;4918380;29;20295;-79
2023/04/30 08:21:56;;;;;;;;;;;;;;;18.70;58.24;100759.41;4922717;29;19918;-80
2023/04/30 08:24:45;;;;;;;;;;;;;;;18.69;58.25;100765.28;4936802;28;19919;-81
2023/04/30 08:27:35;;;;;;;;;;;;;;;18.75;58.82;100761.03;4936019;29;20374;-80
2023/04/30 08:30:27;;;;;;;;;;;;;;;18.73;58.47;100769.69;4920223;29;19923;-80
2023/04/30 08:33:19;;;;;;;;;;;;;;;18.70;58.64;100766.88;4923649;29;19914;-80
2023/04/30 08:36:11;;;;;;;;;;;;;;;18.76;58.37;100762.63;4904341;29;19919;-82
2023/04/30 08:39:00;;;;;;;;;;;;;;;19.34;56.49;100774.16;4906186;29;20342;-81
2023/04/30 08:41:54;;;;;;;;;;;;;;;18.99;57.51;100768.13;4924385;29;19915;-82
2023/04/30 08:44:47;;;;;;;;;;;;;;;18.95;56.82;100767.25;4929942;29;19918;-83
2023/04/30 08:47:39;;;;;;;;;;;;;;;18.92;57.40;100770.75;4926708;29;19915;-79
2023/04/30 08:50:28;;;;;;;;;;;;;;;18.96;57.50;100772.41;4928807;29;19915;-79
2023/04/30 08:53:20;;;;;;;;;;;;;;;18.98;57.28;100766.53;4921896;29;20553;-81
2023/04/30 08:56:15;;;;;;;;;;;;;;;18.90;57.45;100770.31;4935020;29;20146;-81
2023/04/30 08:59:07;;;;;;;;;;;;;;;18.98;57.68;100777.56;4927086;29;19915;-79
2023/04/30 09:02:01;;;;;;;;;;;;;;;18.81;58.94;100767.84;4928171;29;20298;-79
2023/04/30 09:04:53;;;;;;;;;;;;;;;18.95;58.67;100776.31;4910395;29;20391;-79
2023/04/30 09:07:45;;;;;;;;;;;;;;;19.02;58.89;100784.72;4907633;29;19915;-79
2023/04/30 09:10:37;;;;;;;;;;;;;;;19.03;58.74;100777.25;4926353;29;20379;-83
2023/04/30 09:13:41;;;;;;;;;;;;;;;19.19;58.12;100781.44;4923250;29;19915;-82
2023/04/30 09:16:45;;;;;;;;;;;;;;;19.10;57.67;100780.88;4931661;29;19915;-82
2023/04/30 09:19:39;;;;;;;;;;;;;;;19.17;58.79;100774.69;4934423;29;19915;-82
2023/04/30 09:22:28;;;;;;;;;;;;;;;19.31;60.19;100774.88;4914696;29;20429;-81
2023/04/30 09:25:38;;;;;;;;;;;;;;;19.45;58.59;100771.59;4918684;29;19923;-82
2023/04/30 09:28:30;;;;;;;;;;;;;;;19.61;57.82;100775.72;4931085;29;19915;-81
2023/04/30 09:31:25;;;;;;;48.25;11.95;;;;;;;19.53;58.17;100771.28;4935468;29;19919;-82
2023/04/30 09:34:20;;;;;;;33.50;9.48;;;;;;;19.47;57.14;100772.78;4953330;29;20040;-81
2023/04/30 09:37:14;;;;;;;19.05;6.38;;;;;;;19.34;57.01;100770.59;4966120;28;20043;-83
2023/04/30 09:40:10;;;;;;;24.55;5.20;;;;;;;19.28;56.90;100761.84;4949608;29;20031;-83
2023/04/30 09:43:00;;;;;;;11.85;5.50;;;;;;;19.17;56.56;100758.16;4941210;29;20051;-84
2023/04/30 09:45:54;;;;;;;23.05;5.03;;;;;;;19.14;56.90;100761.66;4946213;29;20047;-83
2023/04/30 09:48:48;;;;;;;11.65;4.65;;;;;;;19.09;57.02;100756.47;4947817;29;20035;-84
2023/04/30 09:51:57;;;;;;;14.07;3.78;;;;;;;19.10;56.84;100760.78;4943156;29;20051;-85
2023/04/30 09:54:48;;;;;;;11.50;3.03;;;;;;;19.07;56.93;100756.84;4939992;29;20055;-85
2023/04/30 09:57:43;;;;;;;18.63;3.40;;;;;;;19.07;56.48;100758.78;4938549;29;20038;-85
2023/04/30 10:00:36;;;;;;;12.07;2.83;;;;;;;19.08;55.95;100752.13;4940793;29;20051;-87
2023/04/30 17:09:44;;;;;;;1.60;0.85;;;;;;;19.96;49.94;100626.28;4960097;28;20053;-76
2023/04/30 17:12:39;;;;;;;3.80;1.05;;;;;;;19.94;50.10;100617.63;4964359;28;20563;-76
2023/04/30 17:15:33;;;;;;;1.50;0.90;;;;;;;19.92;50.15;100613.63;4942827;28;20137;-80
2023/04/30 17:18:28;;;;;;;2.75;1.00;;;;;;;19.93;50.34;100620.75;4969762;28;20042;-76
2023/04/30 17:21:22;;;;;;;20.33;2.55;;;;;;;19.95;50.42;100623.94;4957984;28;20618;-75
2023/04/30 17:24:17;;;;;;;2.95;1.02;;;;;;;19.90;50.14;100611.28;4959851;28;20070;-75
2023/04/30 17:27:09;;;;;;;4.55;0.90;;;;;;;19.91;50.21;100623.88;4972623;28;20050;-76
2023/04/30 17:30:04;;;;;;;4.32;1.00;;;;;;;19.91;49.85;100617.59;4966034;28;20047;-76
2023/04/30 17:32:58;;;;;;;2.42;1.15;;;;;;;19.92;49.77;100619.94;4930562;28;20046;-75
2023/04/30 17:35:51;;;;;;;5.10;1.48;;;;;;;19.91;49.93;100626.63;4945465;28;20046;-75
2023/04/30 17:38:45;;;;;;;12.70;2.10;;;;;;;19.91;49.62;100617.59;4957759;28;20070;-75
2023/04/30 17:41:40;;;;;;;4.28;1.38;;;;;;;19.89;49.85;100619.94;4950635;29;20035;-76
2023/04/30 17:44:34;;;;;;;1.67;1.13;;;;;;;19.91;49.75;100634.16;4947058;29;20059;-75
2023/04/30 17:47:21;;;;;;;;;;;;;;;19.73;49.91;100635.94;4950234;29;20055;-76
2023/04/30 17:50:12;;;;;;;;;;;;;;;19.47;50.75;100631.31;4952674;29;19914;-83
2023/04/30 17:53:07;;;;;;;;;;;;;;;19.34;51.04;100629.97;4970826;29;19915;-82
2023/04/30 17:55:58;;;;;;;;;;;;;;;19.26;50.96;100629.06;4962742;28;19911;-83
2023/04/30 17:58:47;;;;;;;;;;;;;;;19.14;50.89;100624.63;4965491;29;19914;-81
2023/04/30 18:01:43;;;;;;;;;;;;;;;19.01;50.67;100631.53;4978823;28;19914;-81
2023/04/30 18:04:35;;;;;;;;;;;;;;;18.96;50.97;100623.59;4976236;28;19915;-82
2023/04/30 18:07:24;;;;;;;;;;;;;;;18.90;50.70;100630.59;4966584;29;20310;-82
2023/04/30 18:10:17;;;;;;;;;;;;;;;18.81;51.32;100630.06;4966106;28;19919;-81
2023/04/30 18:13:09;;;;;;;;;;;;;;;18.78;51.41;100633.59;4973979;28;19922;-81
2023/04/30 18:15:56;;;;;;;;;;;;;;;18.75;50.83;100632.34;4972028;28;19914;-82
2023/04/30 18:18:43;;;;;;;;;;;;;;;18.68;51.44;100637.78;4975124;28;19914;-81
2023/04/30 18:21:34;;;;;;;;;;;;;;;18.63;51.48;100637.31;4973236;28;19915;-82
2023/04/30 18:24:27;;;;;;;;;;;;;;;18.59;51.59;100642.75;4976679;28;19914;-81
2023/04/30 18:27:19;;;;;;;;;;;;;;;18.47;52.14;100636.63;4955426;28;19930;-81
2023/04/30 18:30:11;;;;;;;;;;;;;;;18.45;52.10;100645.25;4962646;28;19915;-81
2023/04/30 18:33:03;;;;;;;;;;;;;;;18.43;52.34;100639.34;4968937;28;19915;-81
2023/04/30 18:35:55;;;;;;;;;;;;;;;18.31;52.58;100643.06;4970854;28;19914;-81
2023/04/30 18:38:45;;;;;;;;;;;;;;;18.26;53.07;100639.84;4967695;28;20374;-81
2023/04/30 18:41:34;;;;;;;;;;;;;;;18.17;53.25;100650.31;4970585;28;19914;-81
2023/04/30 18:44:33;;;;;;;;;;;;;;;18.06;53.46;100647.38;4955420;28;20570;-80
2023/04/30 18:47:24;;;;;;;;;;;;;;;18.06;53.78;100652.09;4973300;28;19918;-81
2023/04/30 18:50:16;;;;;;;;;;;;;;;18.03;53.82;100647.31;4962713;28;19915;-81
2023/04/30 18:53:05;;;;;;;;;;;;;;;18.00;53.94;100648.03;4963465;28;19923;-82
2023/04/30 18:55:51;;;;;;;;;;;;;;;17.97;53.99;100662.53;4963198;28;19914;-81
2023/04/30 18:58:40;;;;;;;;;;;;;;;17.91;54.20;100662.03;4963221;28;19926;-82
2023/04/30 19:01:28;;;;;;;;;;;;;;;17.81;54.53;100662.66;4961036;28;19914;-82
2023/04/30 19:04:18;;;;;;;;;;;;;;;17.76;54.86;100658.25;4963478;28;19915;-83
2023/04/30 19:07:10;;;;;;;;;;;;;;;17.69;55.18;100660.84;4962467;28;19922;-82
2023/04/30 19:10:02;;;;;;;;;;;;;;;17.62;55.72;100668.97;4968049;28;19915;-82
2023/04/30 19:12:54;;;;;;;;;;;;;;;17.50;56.19;100669.91;4969808;28;20297;-81
2023/04/30 19:15:45;;;;;;;;;;;;;;;17.46;55.89;100663.53;4966552;28;19915;-83
2023/04/30 19:18:37;;;;;;;;;;;;;;;17.53;55.74;100668.34;4971067;28;20231;-82
2023/04/30 19:21:25;;;;;;;;;;;;;;;17.47;55.66;100672.59;4967365;28;19914;-82
2023/04/30 19:24:13;;;;;;;;;;;;;;;17.49;55.89;100678.50;4965153;28;19919;-80
2023/04/30 19:27:03;;;;;;;;;;;;;;;17.49;55.54;100679.28;4972525;28;19918;-82
2023/04/30 19:29:57;;;;;;;;;;;;;;;17.52;55.28;100670.31;4965953;28;20282;-81
2023/04/30 19:32:48;;;;;;;;;;;;;;;17.55;55.16;100677.06;4963480;28;19918;-84
2023/04/30 19:35:38;;;;;;;;;;;;;;;17.52;55.43;100675.81;4966365;28;20449;-82
2023/04/30 19:38:27;;;;;;;;;;;;;;;17.55;55.21;100660.56;4965692;28;19918;-82
2023/04/30 19:41:14;;;;;;;;;;;;;;;17.48;55.24;100671.41;4963799;29;19914;-81
2023/04/30 19:44:08;;;;;;;;;;;;;;;17.47;55.38;100676.09;4963931;29;20294;-82
2023/04/30 19:47:01;;;;;;;;;;;;;;;17.39;55.83;100671.63;4964089;28;19926;-82
2023/04/30 19:49:53;;;;;;;;;;;;;;;17.36;55.95;100680.63;4962226;28;19918;-81
2023/04/30 19:52:40;;;;;;;;;;;;;;;17.33;55.96;100669.53;4964281;28;19914;-83
2023/04/30 19:55:27;;;;;;;;;;;;;;;17.33;55.90;100681.31;4958288;28;19919;-82
2023/04/30 19:58:17;;;;;;;;;;;;;;;17.32;56.00;100678.94;4972629;28;19914;-81
2023/04/30 20:01:07;;;;;;;;;;;;;;;17.33;55.51;100677.78;4969272;28;19922;-81
2023/04/30 20:03:57;;;;;;;;;;;;;;;17.23;56.34;100670.09;4962034;28;19914;-82
2023/04/30 20:06:46;;;;;;;;;;;;;;;17.18;56.05;100676.69;4970849;28;19926;-82
2023/04/30 20:09:36;;;;;;;;;;;;;;;17.13;56.33;100670.66;4970588;28;20386;-83
2023/04/30 20:12:28;;;;;;;;;;;;;;;17.14;56.38;100683.25;4985521;28;19914;-82
2023/04/30 20:15:18;;;;;;;;;;;;;;;17.20;55.64;100685.38;4972018;28;19918;-81
2023/04/30 20:18:11;;;;;;;;;;;;;;;17.18;55.95;100689.63;4994250;28;19914;-81
2023/04/30 20:21:01;;;;;;;;;;;;;;;17.12;56.67;100688.34;4989731;28;19914;-81
2023/04/30 20:23:50;;;;;;;;;;;;;;;17.08;56.34;100693.72;4981582;28;19914;-81
2023/04/30 20:26:42;;;;;;;;;;;;;;;17.00;56.58;100690.06;4984598;28;19918;-82
2023/04/30 20:29:34;;;;;;;;;;;;;;;17.00;56.52;100695.53;4984240;28;19914;-81
2023/04/30 20:32:24;;;;;;;;;;;;;;;16.94;56.80;100686.00;4961855;28;19914;-80
2023/04/30 20:35:16;;;;;;;;;;;;;;;16.90;56.98;100695.31;4958543;28;20297;-80
2023/04/30 20:38:05;;;;;;;;;;;;;;;16.85;57.73;100696.38;4966765;28;19914;-82
2023/04/30 20:40:58;;;;;;;;;;;;;;;16.85;57.08;100704.63;4962715;28;19915;-80
2023/04/30 20:43:50;;;;;;;;;;;;;;;16.85;56.97;100692.84;4970552;28;19933;-84
2023/04/30 20:46:42;;;;;;;;;;;;;;;16.83;57.17;100698.69;4976467;28;19918;-83
2023/04/30 20:49:32;;;;;;;;;;;;;;;16.80;57.94;100693.91;4970267;28;19914;-83
2023/04/30 20:52:18;;;;;;;;;;;;;;;16.74;59.34;100700.03;4971503;28;19918;-82
2023/04/30 20:55:08;;;;;;;;;;;;;;;16.65;59.59;100697.47;4981533;28;19914;-83
2023/04/30 20:57:58;;;;;;;;;;;;;;;16.59;59.97;100698.91;4970865;28;19918;-83
2023/04/30 21:00:50;;;;;;;;;;;;;;;16.65;58.24;100695.53;4980624;28;19914;-82
2023/04/30 21:03:35;;;;;;;;;;;;;;;16.57;59.16;100690.19;4972906;28;20091;-83
2023/04/30 21:06:27;;;;;;;;;;;;;;;16.52;60.18;100693.19;4964523;28;19918;-82
2023/04/30 21:09:19;;;;;;;;;;;;;;;16.44;59.67;100686.75;4959271;29;19915;-84
2023/04/30 21:12:12;;;;;;;;;;;;;;;16.48;59.93;100692.31;4972713;28;19918;-83
2023/04/30 21:15:04;;;;;;;;;;;;;;;16.43;60.73;100693.38;4968713;29;19914;-83
2023/04/30 21:17:51;;;;;;;;;;;;;;;16.35;61.48;100696.31;4969867;29;19922;-84
2023/04/30 21:20:44;;;;;;;;;;;;;;;16.37;61.08;100694.00;4952180;29;19914;-82
2023/04/30 21:23:36;;;;;;;;;;;;;;;16.35;60.95;100696.31;4957871;29;19914;-84
2023/04/30 21:26:28;;;;;;;;;;;;;;;16.32;61.07;100697.00;4975702;28;19914;-84
2023/04/30 21:29:20;;;;;;;;;;;;;;;16.41;61.37;100690.19;4974432;28;19921;-84
2023/04/30 21:32:12;;;;;;;;;;;;;;;16.36;61.41;100697.88;4996435;28;19914;-84
2023/04/30 21:35:02;;;;;;;;;;;;;;;16.33;62.02;100701.34;4987024;28;19914;-81
2023/04/30 21:37:54;;;;;;;;;;;;;;;16.32;61.92;100699.75;4988186;28;19914;-81
2023/04/30 21:40:46;;;;;;;;;;;;;;;16.32;62.49;100692.31;4990522;28;19914;-82
2023/04/30 21:43:33;;;;;;;;;;;;;;;16.34;62.60;100694.72;4954253;29;19915;-83